createdAt,value
2022-08-03T00:00:39.974Z,24.01
2022-08-03T00:03:08.205Z,24.03
2022-08-03T00:05:36.404Z,24.21
2022-08-03T00:08:04.729Z,24.36
2022-08-03T00:10:35.107Z,24.13
2022-08-03T00:13:04.736Z,23.98
2022-08-03T00:15:33.097Z,23.91
2022-08-03T00:18:03.212Z,23.72
2022-08-03T00:20:31.426Z,23.99
2022-08-03T00:22:59.437Z,23.80
2022-08-03T00:25:27.791Z,23.73
2022-08-03T00:27:56.179Z,23.76
2022-08-03T00:30:26.891Z,23.78
2022-08-03T00:32:59.605Z,23.57
2022-08-03T00:35:36.610Z,23.50
2022-08-03T00:38:11.392Z,23.53
2022-08-03T00:40:39.633Z,23.47
2022-08-03T00:43:09.131Z,23.63
2022-08-03T00:45:40.352Z,23.60
2022-08-03T00:48:19.512Z,23.52
2022-08-03T00:51:00.339Z,23.45
2022-08-03T00:53:29.221Z,23.31
2022-08-03T00:55:59.760Z,22.98
2022-08-03T00:58:28.083Z,23.06
2022-08-03T01:00:57.787Z,23.30
2022-08-03T01:03:26.064Z,23.10
2022-08-03T01:05:57.789Z,23.18
2022-08-03T01:08:32.150Z,23.29
2022-08-03T01:11:08.310Z,23.20
2022-08-03T01:22:12.607Z,22.91
2022-08-03T01:24:50.255Z,23.04
2022-08-03T01:27:20.703Z,23.11
2022-08-03T01:30:05.614Z,22.89
2022-08-03T01:32:59.977Z,22.94
2022-08-03T01:35:35.451Z,22.94
2022-08-03T01:38:12.001Z,22.69
2022-08-03T01:40:41.773Z,22.71
2022-08-03T01:43:12.439Z,22.74
2022-08-03T01:45:45.006Z,22.98
2022-08-03T01:48:14.282Z,22.68
2022-08-03T01:50:43.877Z,22.76
2022-08-03T01:53:14.654Z,22.87
2022-08-03T01:55:43.356Z,22.40
2022-08-03T01:58:11.721Z,22.55
2022-08-03T02:00:45.868Z,22.56
2022-08-03T02:03:14.937Z,22.47
2022-08-03T02:05:44.990Z,22.68
2022-08-03T02:08:15.155Z,22.59
2022-08-03T02:10:45.019Z,22.64
2022-08-03T02:13:14.183Z,22.58
2022-08-03T02:15:42.853Z,22.66
2022-08-03T02:18:13.144Z,22.62
2022-08-03T02:20:42.759Z,22.67
2022-08-03T02:23:11.102Z,22.55
2022-08-03T02:25:43.434Z,22.41
2022-08-03T02:28:13.577Z,22.24
2022-08-03T02:30:44.093Z,22.29
2022-08-03T02:33:20.519Z,22.22
2022-08-03T02:35:50.536Z,22.55
2022-08-03T02:38:21.788Z,22.44
2022-08-03T02:40:51.322Z,22.40
2022-08-03T02:43:21.815Z,22.69
2022-08-03T02:45:51.664Z,22.61
2022-08-03T02:48:23.815Z,22.38
2022-08-03T02:50:54.667Z,22.51
2022-08-03T02:53:22.998Z,22.56
2022-08-03T02:55:51.675Z,22.70
2022-08-03T02:58:21.813Z,22.83
2022-08-03T03:00:51.858Z,22.75
2022-08-03T03:03:22.262Z,22.76
2022-08-03T03:05:54.740Z,22.66
2022-08-03T03:08:28.722Z,22.62
2022-08-03T03:10:58.674Z,22.52
2022-08-03T03:13:28.677Z,22.60
2022-08-03T03:15:58.536Z,22.40
2022-08-03T03:18:29.127Z,22.61
2022-08-03T03:21:00.473Z,22.39
2022-08-03T03:23:29.701Z,22.38
2022-08-03T03:25:59.030Z,22.42
2022-08-03T03:28:27.451Z,22.42
2022-08-03T03:30:57.090Z,22.55
2022-08-03T03:33:27.199Z,22.34
2022-08-03T03:35:59.058Z,22.51
2022-08-03T03:38:27.472Z,22.39
2022-08-03T03:40:56.263Z,22.43
2022-08-03T03:43:25.194Z,22.46
2022-08-03T03:45:54.153Z,22.61
2022-08-03T03:48:22.377Z,22.41
2022-08-03T03:50:53.334Z,22.66
2022-08-03T03:53:22.880Z,22.66
2022-08-03T03:55:59.389Z,22.68
2022-08-03T03:58:33.742Z,22.49
2022-08-03T04:01:02.206Z,22.50
2022-08-03T04:03:30.587Z,22.42
2022-08-03T04:06:17.408Z,22.47
2022-08-03T04:09:04.566Z,22.40
2022-08-03T04:11:37.994Z,22.22
2022-08-03T04:14:09.674Z,22.50
2022-08-03T04:16:43.646Z,22.43
2022-08-03T04:19:13.925Z,22.49
2022-08-03T04:21:43.488Z,22.39
2022-08-03T04:24:15.218Z,22.33
2022-08-03T04:26:46.651Z,22.43
2022-08-03T04:29:17.594Z,22.39
2022-08-03T04:31:47.191Z,22.52
2022-08-03T04:34:15.467Z,22.73
2022-08-03T04:36:47.112Z,22.90
2022-08-03T04:39:21.596Z,22.65
2022-08-03T04:42:04.704Z,22.79
2022-08-03T04:44:39.285Z,22.76
2022-08-03T04:47:07.628Z,22.53
2022-08-03T04:49:37.667Z,22.71
2022-08-03T04:52:06.933Z,22.81
2022-08-03T04:54:42.904Z,22.64
2022-08-03T04:57:22.673Z,22.68
2022-08-03T05:00:01.436Z,22.98
2022-08-03T05:02:32.278Z,23.02
2022-08-03T05:05:00.840Z,22.98
2022-08-03T05:07:36.399Z,23.24
2022-08-03T05:10:16.121Z,23.29
2022-08-03T05:12:45.691Z,23.10
2022-08-03T05:15:14.294Z,22.98
2022-08-03T05:17:42.953Z,23.14
2022-08-03T05:20:12.225Z,23.52
2022-08-03T05:22:40.512Z,23.48
2022-08-03T05:25:19.827Z,23.29
2022-08-03T05:27:50.054Z,23.18
2022-08-03T05:30:31.049Z,23.35
2022-08-03T05:33:03.846Z,23.26
2022-08-03T05:36:02.769Z,23.53
2022-08-03T05:38:28.067Z,23.45
2022-08-03T05:41:21.290Z,23.57
2022-08-03T05:43:46.511Z,23.46
2022-08-03T05:46:14.737Z,23.52
2022-08-03T05:48:43.506Z,23.57
2022-08-03T05:51:12.551Z,23.74
2022-08-03T05:53:41.218Z,23.81
2022-08-03T05:56:14.666Z,23.89
2022-08-03T05:58:47.005Z,24.03
2022-08-03T06:01:18.040Z,23.95
2022-08-03T06:03:46.366Z,24.11
2022-08-03T06:06:14.894Z,24.25
2022-08-03T06:08:43.265Z,24.18
2022-08-03T06:11:14.802Z,24.15
2022-08-03T06:13:43.554Z,24.13
2022-08-03T06:16:11.995Z,24.27
2022-08-03T06:18:41.345Z,24.44
2022-08-03T06:21:15.475Z,24.60
2022-08-03T06:23:54.642Z,24.45
2022-08-03T06:26:29.227Z,24.47
2022-08-03T06:28:59.558Z,24.58
2022-08-03T06:31:40.896Z,24.56
2022-08-03T06:34:32.238Z,24.74
2022-08-03T06:37:09.536Z,24.75
2022-08-03T06:39:45.100Z,24.74
2022-08-03T06:42:25.036Z,25.00
2022-08-03T06:45:06.400Z,25.00
2022-08-03T06:48:02.592Z,25.10
2022-08-03T06:50:39.813Z,25.08
2022-08-03T06:53:11.354Z,25.20
2022-08-03T06:55:54.393Z,25.14
2022-08-03T06:58:24.931Z,25.13
2022-08-03T07:00:58.839Z,25.38
2022-08-03T07:03:28.839Z,25.37
2022-08-03T07:05:57.190Z,25.44
2022-08-03T07:08:33.552Z,25.55
2022-08-03T07:11:02.973Z,25.55
2022-08-03T07:13:34.098Z,25.56
2022-08-03T07:16:02.372Z,25.64
2022-08-03T07:18:31.157Z,25.77
2022-08-03T07:20:59.751Z,25.81
2022-08-03T07:23:27.870Z,25.84
2022-08-03T07:25:56.217Z,25.90
2022-08-03T07:28:24.575Z,25.92
2022-08-03T07:30:54.428Z,26.03
2022-08-03T07:33:22.602Z,26.09
2022-08-03T07:35:51.270Z,26.11
2022-08-03T07:38:21.123Z,26.26
2022-08-03T07:40:49.527Z,26.36
2022-08-03T07:43:17.851Z,26.43
2022-08-03T07:45:46.008Z,26.42
2022-08-03T07:48:17.495Z,26.58
2022-08-03T07:50:46.263Z,26.57
2022-08-03T07:53:16.720Z,26.57
2022-08-03T07:55:45.012Z,26.64
2022-08-03T07:58:19.183Z,26.66
2022-08-03T08:00:51.094Z,26.67
2022-08-03T08:03:21.990Z,26.77
2022-08-03T08:05:50.653Z,26.85
2022-08-03T08:08:18.812Z,26.96
2022-08-03T08:10:58.460Z,27.01
2022-08-03T08:13:27.142Z,26.96
2022-08-03T08:15:55.398Z,26.96
2022-08-03T08:18:25.471Z,27.05
2022-08-03T08:20:56.608Z,27.12
2022-08-03T08:23:44.187Z,27.09
2022-08-03T08:26:18.774Z,27.17
2022-08-03T08:28:46.995Z,27.17
2022-08-03T08:31:15.517Z,27.27
2022-08-03T08:34:03.767Z,27.34
2022-08-03T08:36:33.754Z,27.36
2022-08-03T08:39:04.669Z,27.41
2022-08-03T08:41:34.925Z,27.52
2022-08-03T08:44:03.254Z,27.63
2022-08-03T08:46:33.965Z,27.79
2022-08-03T08:49:03.795Z,27.76
2022-08-03T08:51:59.318Z,27.69
2022-08-03T08:54:26.923Z,27.68
2022-08-03T08:56:57.586Z,27.96
2022-08-03T08:59:26.545Z,27.97
2022-08-03T09:02:15.063Z,28.11
2022-08-03T09:04:45.807Z,28.28
2022-08-03T09:07:20.703Z,28.34
2022-08-03T09:10:05.321Z,28.36
2022-08-03T09:12:42.731Z,28.54
2022-08-03T09:15:21.517Z,28.52
2022-08-03T09:17:51.297Z,28.64
2022-08-03T09:20:22.102Z,28.79
2022-08-03T09:22:55.126Z,28.83
2022-08-03T09:25:31.822Z,28.94
2022-08-03T09:28:10.898Z,28.78
2022-08-03T09:30:40.614Z,28.77
2022-08-03T09:33:13.957Z,29.01
2022-08-03T09:35:59.956Z,29.15
2022-08-03T09:38:28.258Z,29.19
2022-08-03T09:41:00.677Z,29.34
2022-08-03T09:43:29.659Z,29.45
2022-08-03T09:46:04.297Z,29.55
2022-08-03T09:48:35.074Z,29.58
2022-08-03T09:51:14.354Z,29.66
2022-08-03T09:53:59.204Z,29.71
2022-08-03T09:56:40.143Z,29.58
2022-08-03T09:59:08.431Z,29.67
2022-08-03T10:01:39.668Z,29.85
2022-08-03T10:04:08.163Z,29.73
2022-08-03T10:06:37.743Z,29.92
2022-08-03T10:09:08.359Z,30.12
2022-08-03T10:11:41.721Z,30.26
2022-08-03T10:14:19.163Z,30.24
2022-08-03T10:16:49.135Z,30.38
2022-08-03T10:19:18.339Z,30.48
2022-08-03T10:21:54.480Z,30.44
2022-08-03T10:24:28.575Z,30.37
2022-08-03T10:27:03.520Z,30.55
2022-08-03T10:29:34.998Z,30.78
2022-08-03T10:32:06.567Z,30.75
2022-08-03T10:34:38.384Z,30.89
2022-08-03T10:37:15.018Z,31.06
2022-08-03T10:39:53.601Z,31.14
2022-08-03T10:42:27.306Z,31.20
2022-08-03T10:45:03.053Z,31.21
2022-08-03T10:47:31.828Z,31.08
2022-08-03T10:50:00.861Z,31.03
2022-08-03T10:52:33.905Z,31.36
2022-08-03T10:55:39.361Z,31.36
2022-08-03T10:58:11.268Z,31.50
2022-08-03T11:00:53.000Z,31.42
2022-08-03T11:03:21.357Z,31.56
2022-08-03T11:05:52.367Z,31.67
2022-08-03T11:08:39.968Z,31.62
2022-08-03T11:11:28.605Z,31.72
2022-08-03T11:14:05.016Z,31.85
2022-08-03T11:16:36.365Z,31.39
2022-08-03T11:19:07.832Z,31.50
2022-08-03T11:21:59.113Z,31.63
2022-08-03T11:25:00.213Z,31.89
2022-08-03T11:27:30.576Z,32.09
2022-08-03T11:30:05.003Z,32.10
2022-08-03T11:32:56.625Z,32.12
2022-08-03T11:35:26.853Z,31.97
2022-08-03T11:38:12.684Z,32.21
2022-08-03T11:40:45.185Z,32.28
2022-08-03T11:43:46.507Z,32.43
2022-08-03T11:46:28.374Z,32.46
2022-08-03T11:49:10.224Z,32.71
2022-08-03T11:51:41.272Z,32.35
2022-08-03T11:54:09.719Z,32.58
2022-08-03T11:56:51.899Z,32.20
2022-08-03T11:59:22.330Z,32.59
2022-08-03T12:01:51.685Z,32.76
2022-08-03T12:04:22.685Z,32.80
2022-08-03T12:07:00.970Z,33.14
2022-08-03T12:09:29.508Z,33.07
2022-08-03T12:12:00.288Z,33.38
2022-08-03T12:14:48.492Z,33.54
2022-08-03T12:17:19.477Z,33.29
2022-08-03T12:19:48.011Z,33.34
2022-08-03T12:22:17.256Z,33.13
2022-08-03T12:24:47.633Z,33.18
2022-08-03T12:27:26.595Z,33.19
2022-08-03T12:29:58.552Z,33.12
2022-08-03T12:32:27.802Z,33.20
2022-08-03T12:35:00.257Z,33.32
2022-08-03T12:37:32.034Z,33.77
2022-08-03T12:40:09.383Z,34.02
2022-08-03T12:42:40.848Z,34.40
2022-08-03T12:45:23.059Z,34.70
2022-08-03T12:47:55.797Z,34.78
2022-08-03T12:50:28.846Z,34.89
2022-08-03T12:52:57.805Z,34.35
2022-08-03T12:55:57.284Z,34.69
2022-08-03T12:58:34.553Z,34.81
2022-08-03T13:01:09.457Z,35.04
2022-08-03T13:03:43.587Z,35.41
2022-08-03T13:06:17.626Z,35.53
2022-08-03T13:08:47.984Z,35.31
2022-08-03T13:11:53.513Z,35.05
2022-08-03T13:14:19.574Z,35.01
2022-08-03T13:16:49.230Z,35.12
2022-08-03T13:19:17.789Z,34.27
2022-08-03T13:21:53.578Z,34.81
2022-08-03T13:24:33.585Z,35.00
2022-08-03T13:28:02.118Z,35.08
2022-08-03T13:29:55.176Z,35.37
2022-08-03T13:32:23.970Z,35.47
2022-08-03T13:34:55.412Z,35.89
2022-08-03T13:37:24.054Z,36.17
2022-08-03T13:39:59.246Z,36.29
2022-08-03T13:42:30.614Z,36.60
2022-08-03T13:45:00.676Z,36.61
2022-08-03T13:47:29.401Z,36.64
2022-08-03T13:50:01.279Z,36.70
2022-08-03T13:52:32.523Z,37.06
2022-08-03T13:55:01.076Z,37.14
2022-08-03T13:58:05.099Z,37.20
2022-08-03T14:00:27.725Z,37.09
2022-08-03T14:03:16.478Z,37.58
2022-08-03T14:05:45.479Z,37.89
2022-08-03T14:08:13.940Z,37.91
2022-08-03T14:10:44.034Z,38.02
2022-08-03T14:13:16.856Z,38.24
2022-08-03T14:15:50.271Z,38.19
2022-08-03T14:18:28.248Z,38.17
2022-08-03T14:21:05.448Z,38.22
2022-08-03T14:23:36.492Z,37.45
2022-08-03T14:26:05.064Z,38.02
2022-08-03T14:28:33.139Z,38.11
2022-08-03T14:31:03.407Z,38.08
2022-08-03T14:33:31.688Z,38.35
2022-08-03T14:36:00.171Z,37.78
2022-08-03T14:38:28.543Z,37.82
2022-08-03T14:40:57.073Z,38.05
2022-08-03T14:43:25.388Z,38.26
2022-08-03T14:46:04.582Z,37.98
2022-08-03T14:50:34.121Z,37.83
2022-08-03T14:51:21.120Z,37.53
2022-08-03T14:53:49.352Z,37.78
2022-08-03T14:56:17.571Z,37.67
2022-08-03T14:58:48.560Z,37.67
2022-08-03T15:02:02.604Z,37.88
2022-08-03T15:04:06.462Z,37.88
2022-08-03T15:06:35.004Z,37.56
2022-08-03T15:09:22.606Z,37.73
2022-08-03T15:11:51.679Z,37.69
2022-08-03T15:14:22.386Z,37.43
2022-08-03T15:17:02.133Z,37.93
2022-08-03T15:20:03.140Z,38.22
2022-08-03T15:22:25.012Z,37.92
2022-08-03T15:24:56.304Z,37.95
2022-08-03T15:27:24.688Z,37.44
2022-08-03T15:30:07.058Z,37.71
2022-08-03T15:32:42.256Z,37.79
2022-08-03T15:35:10.716Z,37.60
2022-08-03T15:37:38.949Z,37.80
2022-08-03T15:40:07.918Z,38.00
2022-08-03T15:42:36.263Z,38.32
2022-08-03T15:45:05.313Z,38.39
2022-08-03T15:47:33.581Z,38.62
2022-08-03T15:50:07.809Z,38.68
2022-08-03T15:52:39.784Z,38.92
2022-08-03T15:55:09.341Z,38.55
2022-08-03T15:59:10.429Z,37.65
2022-08-03T16:00:35.279Z,38.22
2022-08-03T16:03:03.581Z,38.67
2022-08-03T16:05:33.172Z,39.18
2022-08-03T16:08:04.350Z,39.47
2022-08-03T16:10:34.043Z,39.46
2022-08-03T16:13:02.425Z,39.17
2022-08-03T16:15:30.754Z,39.14
2022-08-03T16:17:59.110Z,39.08
2022-08-03T16:20:31.171Z,39.26
2022-08-03T16:23:10.503Z,38.84
2022-08-03T16:25:39.935Z,38.95
2022-08-03T16:28:13.481Z,38.77
2022-08-03T16:30:43.958Z,38.83
2022-08-03T16:33:16.729Z,39.08
2022-08-03T16:35:45.532Z,38.42
2022-08-03T16:38:18.830Z,38.58
2022-08-03T16:40:51.774Z,38.85
2022-08-03T16:43:24.816Z,38.36
2022-08-03T16:45:54.480Z,37.95
2022-08-03T16:48:22.796Z,37.97
2022-08-03T16:50:51.099Z,38.22
2022-08-03T16:53:33.241Z,37.99
2022-08-03T16:56:10.840Z,37.99
2022-08-03T16:58:42.366Z,38.05
2022-08-03T17:01:22.413Z,37.72
2022-08-03T17:04:01.646Z,37.76
2022-08-03T17:06:34.768Z,37.53
2022-08-03T17:09:08.671Z,37.12
2022-08-03T17:11:43.946Z,37.21
2022-08-03T17:14:16.365Z,36.68
2022-08-03T17:16:52.069Z,36.91
2022-08-03T17:19:23.743Z,36.58
2022-08-03T17:21:58.970Z,36.57
2022-08-03T17:24:35.126Z,35.73
2022-08-03T17:27:08.554Z,35.81
2022-08-03T17:29:45.182Z,35.68
2022-08-03T17:32:21.448Z,35.72
2022-08-03T17:34:51.371Z,34.87
2022-08-03T17:37:49.841Z,34.51
2022-08-03T17:40:17.943Z,34.11
2022-08-03T17:42:50.793Z,33.57
2022-08-03T17:45:21.228Z,33.24
2022-08-03T17:47:57.768Z,33.15
2022-08-03T17:50:37.638Z,32.96
2022-08-03T17:53:24.463Z,32.67
2022-08-03T17:56:38.796Z,32.24
2022-08-03T17:59:00.540Z,31.91
2022-08-03T18:02:06.508Z,31.90
2022-08-03T18:04:44.305Z,31.79
2022-08-03T18:07:24.311Z,31.65
2022-08-03T18:10:11.308Z,31.55
2022-08-03T18:12:51.837Z,31.32
2022-08-03T18:15:25.395Z,31.28
2022-08-03T18:18:02.252Z,31.19
2022-08-03T18:20:40.885Z,31.20
2022-08-03T18:23:11.422Z,31.15
2022-08-03T18:25:58.229Z,31.01
2022-08-03T18:28:29.663Z,30.94
2022-08-03T18:30:58.719Z,30.84
2022-08-03T18:34:17.627Z,30.72
2022-08-03T18:36:22.044Z,30.71
2022-08-03T18:39:00.441Z,30.61
2022-08-03T18:41:34.024Z,30.49
2022-08-03T18:47:15.759Z,30.45
2022-08-03T18:50:02.616Z,30.32
2022-08-03T18:52:37.294Z,30.29
2022-08-03T18:55:20.575Z,30.20
2022-08-03T18:57:57.002Z,30.25
2022-08-03T19:00:34.204Z,30.09
2022-08-03T19:03:24.857Z,29.97
2022-08-03T19:06:15.911Z,29.90
2022-08-03T19:08:51.466Z,29.84
2022-08-03T19:11:28.121Z,29.82
2022-08-03T19:13:59.531Z,29.79
2022-08-03T19:16:38.820Z,29.70
2022-08-03T19:19:11.038Z,29.60
2022-08-03T19:21:43.395Z,29.64
2022-08-03T19:24:14.500Z,29.67
2022-08-03T19:26:48.648Z,29.44
2022-08-03T19:29:24.360Z,29.29
2022-08-03T19:32:19.470Z,29.30
2022-08-03T19:34:49.521Z,29.23
2022-08-03T19:37:18.018Z,29.09
2022-08-03T19:39:56.325Z,29.13
2022-08-03T19:42:31.188Z,29.16
2022-08-03T19:45:11.424Z,29.06
2022-08-03T19:47:47.544Z,28.95
2022-08-03T19:50:17.903Z,28.99
2022-08-03T19:52:48.751Z,28.87
2022-08-03T19:55:18.520Z,28.82
2022-08-03T19:57:49.609Z,28.83
2022-08-03T20:00:26.647Z,28.76
2022-08-03T20:03:22.016Z,28.76
2022-08-03T20:05:54.212Z,28.73
2022-08-03T20:08:23.805Z,28.57
2022-08-03T20:10:52.301Z,28.74
2022-08-03T20:13:21.663Z,28.62
2022-08-03T20:15:57.047Z,28.82
2022-08-03T20:18:27.226Z,28.57
2022-08-03T20:20:56.101Z,28.69
2022-08-03T20:23:26.217Z,28.68
2022-08-03T20:26:06.239Z,28.61
2022-08-03T20:28:50.078Z,28.52
2022-08-03T20:31:23.799Z,28.59
2022-08-03T20:34:00.536Z,28.40
2022-08-03T20:36:28.972Z,28.55
2022-08-03T20:38:59.970Z,28.66
2022-08-03T20:41:28.558Z,28.58
2022-08-03T20:44:01.030Z,28.29
2022-08-03T20:49:23.434Z,28.26
2022-08-03T20:51:53.598Z,28.19
2022-08-03T20:54:29.594Z,27.69
2022-08-03T20:57:04.400Z,27.76
2022-08-03T20:59:47.004Z,27.74
2022-08-03T21:02:30.322Z,27.57
2022-08-03T21:08:06.346Z,27.74
2022-08-03T21:10:43.068Z,27.49
2022-08-03T21:12:59.027Z,30.63
2022-08-03T21:13:12.190Z,27.70
2022-08-03T21:13:13.183Z,28.35
2022-08-03T21:13:18.836Z,27.54
2022-08-03T21:16:03.334Z,27.38
2022-08-03T21:18:44.914Z,27.31
2022-08-03T21:21:17.021Z,27.33
2022-08-03T21:23:49.117Z,27.21
2022-08-03T21:26:18.889Z,27.18
2022-08-03T21:28:48.024Z,27.09
2022-08-03T21:31:25.328Z,27.14
2022-08-03T21:33:56.634Z,27.24
2022-08-03T21:36:30.492Z,27.28
2022-08-03T21:38:59.266Z,27.33
2022-08-03T21:41:29.930Z,27.26
2022-08-03T21:43:58.410Z,27.05
2022-08-03T21:46:28.184Z,26.98
2022-08-03T21:50:05.805Z,26.90
2022-08-03T21:51:52.732Z,27.06
2022-08-03T21:54:22.440Z,26.96
2022-08-03T21:56:52.774Z,26.85
2022-08-03T21:59:21.920Z,26.94
2022-08-03T22:01:51.438Z,26.89
2022-08-03T22:04:50.662Z,26.97
2022-08-03T22:07:14.006Z,26.77
2022-08-03T22:09:51.014Z,26.84
2022-08-03T22:12:23.851Z,26.70
2022-08-03T22:15:01.290Z,26.73
2022-08-03T22:17:55.596Z,26.72
2022-08-03T22:20:22.418Z,26.63
2022-08-03T22:22:56.592Z,26.69
2022-08-03T22:25:30.043Z,26.36
2022-08-03T22:28:00.130Z,26.49
2022-08-03T22:30:29.929Z,26.33
2022-08-03T22:32:59.694Z,26.35
2022-08-03T22:35:28.550Z,26.23
2022-08-03T22:37:59.555Z,26.43
2022-08-03T22:40:30.630Z,26.14
2022-08-03T22:43:01.500Z,26.05
2022-08-03T22:46:08.486Z,25.96
2022-08-03T22:48:19.762Z,25.90
2022-08-03T22:50:48.280Z,26.03
2022-08-03T22:53:21.872Z,25.90
2022-08-03T22:55:51.270Z,26.17
2022-08-03T22:58:21.013Z,25.93
2022-08-03T23:01:09.347Z,25.97
2022-08-03T23:03:59.689Z,26.15
2022-08-03T23:06:34.314Z,25.86
2022-08-03T23:09:08.800Z,25.75
2022-08-03T23:11:45.737Z,25.64
2022-08-03T23:14:16.171Z,25.65
2022-08-03T23:16:45.842Z,25.76
2022-08-03T23:19:17.381Z,25.64
2022-08-03T23:22:02.713Z,25.41
2022-08-03T23:24:35.023Z,25.64
2022-08-03T23:27:04.216Z,25.59
2022-08-03T23:29:32.753Z,25.58
2022-08-03T23:32:02.774Z,25.27
2022-08-03T23:34:49.937Z,25.35
2022-08-03T23:37:20.004Z,25.26
2022-08-03T23:39:50.952Z,25.40
2022-08-03T23:42:21.005Z,25.38
2022-08-03T23:44:55.496Z,25.53
2022-08-03T23:47:24.677Z,25.42
2022-08-03T23:50:12.880Z,25.34
2022-08-03T23:52:46.787Z,25.45
2022-08-03T23:55:19.748Z,24.99
2022-08-03T23:58:03.108Z,24.62
